Dan Fighter — OVUE2 — position and weather

sailwx.info

Track history (hours):
 
Tides and Currents Weather Stations Pressure Air Temp Water Temp Dewpoint Dewpoint Depression Visibility Wind Speed Wind Dir Waves Ship Positions

Dan Fighter

Last reported at 2017-Jun-27 07:08 UTC. Time now 2017-Jun-27 13:44 UTC.
Position N 55°49' E 007°15'.

Length 64 m; draft 3.1 m.

Type: Cargo ship. MMSI: 220386978.

Date/timePositionNaut miles runAvg speedWind from/ knotsBaromVisibWave heightAir tempDewpointWater temp
2017-Jun-27 07:08N 55°49' E 007°15'1 5.6
2017-Jun-27 06:58N 55°49' E 007°15'3 6.4
2017-Jun-27 06:30N 55°46' E 007°17'3 5.6
2017-Jun-27 06:00N 55°43' E 007°19'3 5.6
2017-Jun-27 05:30N 55°41' E 007°21'3 5.3
2017-Jun-27 05:00N 55°38' E 007°23'3 5.2
2017-Jun-27 04:30N 55°36' E 007°24'3 5.8
2017-Jun-27 04:00N 55°33' E 007°26'3 6.4
2017-Jun-27 03:30N 55°30' E 007°28'4 7.3
2017-Jun-27 03:00N 55°27' E 007°31'4 7.2
2017-Jun-27 02:30N 55°24' E 007°35'3 6.5
2017-Jun-27 02:00N 55°21' E 007°37'3 6.2
2017-Jun-27 01:30N 55°18' E 007°40'3 6.0
2017-Jun-27 01:00N 55°16' E 007°42'2 4.7
2017-Jun-27 00:30N 55°13' E 007°45'2 4.8
2017-Jun-27 00:00N 55°11' E 007°47'21 0.7
2017-Jun-25 16:46N 54°52' E 008°00'2 6.5
2017-Jun-25 16:28N 54°54' E 007°60'3 6.4
2017-Jun-25 15:58N 54°57' E 007°59'3 6.3
2017-Jun-25 15:30N 54°59' E 007°57'3 6.5
2017-Jun-25 15:00N 55°02' E 007°55'3 6.3
2017-Jun-25 14:30N 55°05' E 007°52'5 5.4
2017-Jun-25 13:30N 55°10' E 007°48'3 5.0
2017-Jun-25 13:00N 55°12' E 007°46'3 5.1
2017-Jun-25 12:30N 55°14' E 007°43'3 5.2
2017-Jun-25 12:00N 55°17' E 007°41'3 5.5
2017-Jun-25 11:30N 55°19' E 007°39'3 5.6
2017-Jun-25 11:00N 55°22' E 007°37'3 5.8
2017-Jun-25 10:30N 55°24' E 007°34'3 6.0
2017-Jun-25 10:00N 55°27' E 007°32'3 6.2
2017-Jun-25 09:30N 55°30' E 007°30'4 6.8
2017-Jun-25 08:59N 55°33' E 007°26'4 8.6
2017-Jun-25 08:30N 55°36' E 007°23'4 8.2
2017-Jun-25 07:59N 55°41' E 007°21'152 7.6
2017-Jun-24 12:00N 58°05' E 005°52'4 8.1
2017-Jun-24 11:30N 58°09' E 005°50'4 8.2
2017-Jun-24 11:00N 58°13' E 005°47'4 8.9
2017-Jun-24 10:30N 58°17' E 005°45'4 8.5
2017-Jun-24 10:00N 58°21' E 005°42'4 8.1
2017-Jun-24 09:30N 58°25' E 005°40'4 7.8
2017-Jun-24 09:00N 58°29' E 005°37'4 7.6
2017-Jun-24 08:30N 58°32' E 005°35'4 8.0
2017-Jun-24 08:00N 58°36' E 005°32'4 7.7
2017-Jun-24 07:31N 58°40' E 005°30'4 7.6
2017-Jun-24 07:00N 58°43' E 005°27'3 6.5
2017-Jun-24 06:31N 58°46' E 005°26'3 6.8
2017-Jun-24 06:01N 58°49' E 005°28'3 6.9
2017-Jun-24 05:31N 58°53' E 005°31'4 7.4
2017-Jun-24 05:00N 58°56' E 005°32'4 7.5
2017-Jun-24 04:30N 58°60' E 005°33'4 8.0
2017-Jun-24 04:00N 59°04' E 005°32'4 8.0
2017-Jun-24 03:30N 59°08' E 005°31'4 7.7
2017-Jun-24 03:00N 59°11' E 005°35'4 8.0
2017-Jun-24 02:30N 59°14' E 005°40'4 8.2
2017-Jun-24 02:00N 59°17' E 005°46'4 8.3
2017-Jun-24 01:30N 59°19' E 005°53'4 8.9
2017-Jun-24 01:00N 59°22' E 006°00'1 2.5
2017-Jun-24 00:28N 59°22' E 006°03'0 0.0
2017-Jun-23 23:58N 59°22' E 006°03'0 0.0
2017-Jun-23 23:28N 59°22' E 006°03'0 0.0
2017-Jun-23 22:58N 59°22' E 006°03'0 0.0
2017-Jun-23 22:28N 59°22' E 006°03'0 0.0
2017-Jun-23 21:58N 59°22' E 006°03'0 0.0
2017-Jun-23 21:28N 59°22' E 006°03'0 0.0
2017-Jun-23 20:58N 59°22' E 006°03'0 0.0
2017-Jun-23 20:28N 59°22' E 006°03'0 0.0
2017-Jun-23 19:58N 59°22' E 006°03'0 0.0
2017-Jun-23 19:28N 59°22' E 006°03'0 0.0
2017-Jun-23 18:58N 59°22' E 006°03'0 0.0
2017-Jun-23 18:28N 59°22' E 006°03'0 0.0
2017-Jun-23 17:58N 59°22' E 006°03'0 0.0
2017-Jun-23 17:28N 59°22' E 006°03'0 0.0
2017-Jun-23 17:00N 59°22' E 006°03'2 4.8
2017-Jun-23 16:30N 59°21' E 005°59'3 6.1
2017-Jun-23 16:00N 59°20' E 005°54'3 6.2
2017-Jun-23 15:30N 59°18' E 005°48'3 6.3
2017-Jun-23 15:00N 59°16' E 005°44'7 6.7
2017-Jun-23 14:00N 59°10' E 005°36'4 7.9
2017-Jun-23 13:30N 59°07' E 005°33'4 7.4
2017-Jun-23 13:00N 59°03' E 005°33'4 7.5
2017-Jun-23 12:30N 58°59' E 005°33'4 7.5
2017-Jun-23 12:00N 58°56' E 005°33'4 7.4
2017-Jun-23 11:30N 58°52' E 005°31'4 7.3
2017-Jun-23 11:00N 58°49' E 005°28'4 7.3
2017-Jun-23 10:30N 58°45' E 005°26'4 7.2
2017-Jun-23 10:00N 58°42' E 005°28'4 7.3
2017-Jun-23 09:30N 58°38' E 005°30'4 7.2
2017-Jun-23 09:00N 58°35' E 005°32'4 7.7
2017-Jun-23 08:30N 58°31' E 005°33'4 7.4
2017-Jun-23 08:00N 58°28' E 005°35'0 1.0
2017-Jun-23 07:30N 58°27' E 005°35'1 1.0
2017-Jun-23 07:00N 58°27' E 005°34'0 0.9
2017-Jun-23 06:30N 58°26' E 005°34'0 0.9
2017-Jun-23 06:00N 58°26' E 005°35'1 1.0
2017-Jun-23 05:30N 58°25' E 005°35'1 1.0
2017-Jun-23 05:00N 58°25' E 005°36'0 0.9
2017-Jun-23 04:30N 58°24' E 005°36'0 0.8
2017-Jun-23 04:00N 58°24' E 005°37'0 0.7
2017-Jun-23 03:30N 58°24' E 005°37'0 0.7
2017-Jun-23 03:00N 58°24' E 005°38'0 0.5
2017-Jun-23 02:30N 58°24' E 005°38'0 0.4
2017-Jun-23 02:00N 58°23' E 005°38'0 0.3
2017-Jun-23 01:30N 58°23' E 005°38'0 0.3
2017-Jun-23 01:00N 58°23' E 005°38'0 0.5
2017-Jun-23 00:30N 58°23' E 005°38'0 0.5
2017-Jun-23 00:00N 58°23' E 005°39'0 0.6
2017-Jun-22 23:30N 58°22' E 005°39'0 0.4
2017-Jun-22 23:00N 58°22' E 005°39'0 0.6
2017-Jun-22 22:30N 58°22' E 005°39'1 1.1
2017-Jun-22 22:00N 58°22' E 005°40'2 5.0
2017-Jun-22 21:30N 58°19' E 005°42'3 5.2
2017-Jun-22 21:00N 58°17' E 005°44'3 5.7
2017-Jun-22 20:30N 58°14' E 005°46'3 5.9
2017-Jun-22 20:00N 58°11' E 005°48'3 5.7
2017-Jun-22 19:30N 58°09' E 005°50'3 5.7
2017-Jun-22 19:00N 58°06' E 005°51'4 6.0
2017-Jun-22 18:25N 58°03' E 005°53'3 5.9
2017-Jun-22 17:55N 57°60' E 005°55'3 5.8
2017-Jun-22 17:29N 57°57' E 005°56'3 5.8
2017-Jun-22 17:00N 57°55' E 005°58'3 5.6
2017-Jun-22 16:29N 57°52' E 005°60'3 5.9
2017-Jun-22 16:00N 57°50' E 006°02'5 5.5
2017-Jun-22 15:11N 57°45' E 006°05'1 6.1
2017-Jun-22 14:57N 57°44' E 006°05'7 7.3
2017-Jun-22 14:00N 57°37' E 006°10'104 8.3
2017-Jun-22 01:31N 55°59' E 007°10'0 9.9
2017-Jun-22 01:30N 55°59' E 007°10'5 9.4
2017-Jun-22 01:00N 55°54' E 007°13'5 9.5
2017-Jun-22 00:29N 55°50' E 007°15'5 9.6
2017-Jun-22 00:00N 55°45' E 007°18'5 9.6
2017-Jun-21 23:30N 55°41' E 007°21'5 9.6
2017-Jun-21 23:00N 55°36' E 007°24'510.0
2017-Jun-21 22:30N 55°32' E 007°27'5 9.7
2017-Jun-21 22:00N 55°27' E 007°31'5 9.3
2017-Jun-21 21:30N 55°23' E 007°35'5 9.2
2017-Jun-21 20:58N 55°19' E 007°39'4 9.0
2017-Jun-21 20:30N 55°15' E 007°42'4 8.7
2017-Jun-21 20:00N 55°11' E 007°46'54 1.4
2017-Jun-20 05:18N 54°21' E 008°19'2 4.8
2017-Jun-20 04:58N 54°22' E 008°18'29 8.5
2017-Jun-20 01:33N 54°50' E 008°00'1 9.1
2017-Jun-20 01:29N 54°50' E 008°00'5 9.5
2017-Jun-20 00:59N 54°55' E 007°58'5 9.7
2017-Jun-20 00:30N 54°59' E 007°57'8 9.1
2017-Jun-19 23:36N 55°07' E 007°50'1 9.1
2017-Jun-19 23:29N 55°08' E 007°49'4 9.0
2017-Jun-19 23:00N 55°11' E 007°46'4 8.9
2017-Jun-19 22:30N 55°15' E 007°42'4 8.8
2017-Jun-19 22:00N 55°19' E 007°38'4 8.9
2017-Jun-19 21:30N 55°23' E 007°34'5 8.9
2017-Jun-19 20:58N 55°27' E 007°31'4 8.7
2017-Jun-19 20:29N 55°31' E 007°28'4 8.7
2017-Jun-19 19:59N 55°35' E 007°24'7 8.6
2017-Jun-19 19:13N 55°41' E 007°21'3 9.0
2017-Jun-19 18:55N 55°44' E 007°19'149 9.1
2017-Jun-19 02:38N 58°05' E 005°52'1 8.6
2017-Jun-19 02:30N 58°06' E 005°52'4 8.4
2017-Jun-19 02:00N 58°10' E 005°49'4 8.6
2017-Jun-19 01:30N 58°14' E 005°46'5 9.2
2017-Jun-19 01:00N 58°18' E 005°43'5 9.2
2017-Jun-19 00:30N 58°23' E 005°41'5 9.1
2017-Jun-19 00:00N 58°27' E 005°38'4 9.1
2017-Jun-18 23:30N 58°31' E 005°35'4 8.9
2017-Jun-18 23:00N 58°36' E 005°32'4 8.7
2017-Jun-18 22:30N 58°40' E 005°30'4 8.8
2017-Jun-18 22:00N 58°44' E 005°27'4 8.3
2017-Jun-18 21:30N 58°48' E 005°28'5 9.5
2017-Jun-18 21:00N 58°52' E 005°31'4 8.9
2017-Jun-18 20:30N 58°57' E 005°32'5 9.2
2017-Jun-18 20:00N 59°01' E 005°33'5 9.4
2017-Jun-18 19:30N 59°06' E 005°33'4 8.9
2017-Jun-18 19:00N 59°10' E 005°34'5 9.1
2017-Jun-18 18:30N 59°14' E 005°40'4 8.7
2017-Jun-18 18:00N 59°17' E 005°46'4 8.4
2017-Jun-18 17:30N 59°19' E 005°53'4 8.8
2017-Jun-18 17:00N 59°22' E 006°00'1 2.8
2017-Jun-18 16:29N 59°22' E 006°03'0 0.0
2017-Jun-18 15:59N 59°22' E 006°03'0 0.0
2017-Jun-18 15:29N 59°22' E 006°03'0 0.0
2017-Jun-18 14:59N 59°22' E 006°03'0 0.0
2017-Jun-18 13:59N 59°22' E 006°03'0 0.0
2017-Jun-18 13:29N 59°22' E 006°03'0 0.0
2017-Jun-18 12:59N 59°22' E 006°03'0 0.0
2017-Jun-18 12:29N 59°22' E 006°03'0 0.0
2017-Jun-18 11:59N 59°22' E 006°03'0 0.0
2017-Jun-18 11:29N 59°22' E 006°03'0 0.0
2017-Jun-18 10:59N 59°22' E 006°03'0 0.0
2017-Jun-18 10:29N 59°22' E 006°03'0 0.0
2017-Jun-18 09:59N 59°22' E 006°03'0 0.6
2017-Jun-18 09:30N 59°22' E 006°02'4 8.4
2017-Jun-18 09:00N 59°20' E 005°55'5 9.9
2017-Jun-18 08:30N 59°17' E 005°47'5 9.6
2017-Jun-18 08:00N 59°14' E 005°41'5 9.3
2017-Jun-18 07:30N 59°10' E 005°36'5 9.4
2017-Jun-18 07:00N 59°05' E 005°33'5 9.7
2017-Jun-18 06:30N 59°01' E 005°33'5 9.7
2017-Jun-18 06:00N 58°56' E 005°33'510.0
2017-Jun-18 05:30N 58°51' E 005°30'5 9.7
2017-Jun-18 05:00N 58°46' E 005°26'5 9.2
2017-Jun-18 04:30N 58°42' E 005°28'5 9.8
2017-Jun-18 04:00N 58°37' E 005°31'510.3
2017-Jun-18 03:30N 58°33' E 005°35'510.2
2017-Jun-18 03:00N 58°28' E 005°38'510.4
2017-Jun-18 02:30N 58°23' E 005°41'510.6
2017-Jun-18 02:00N 58°18' E 005°44'510.6
2017-Jun-18 01:30N 58°13' E 005°47'510.2
2017-Jun-18 01:00N 58°08' E 005°50'510.0
2017-Jun-18 00:28N 58°03' E 005°53'5 9.9
2017-Jun-18 00:00N 57°58' E 005°56'8 9.6
2017-Jun-17 23:10N 57°51' E 006°01'2 9.7
2017-Jun-17 22:59N 57°49' E 006°02'5 9.8
2017-Jun-17 22:30N 57°44' E 006°05'5 9.8
2017-Jun-17 22:00N 57°40' E 006°08'5 9.5
2017-Jun-17 21:29N 57°35' E 006°11'102 9.1
2017-Jun-17 10:21N 55°58' E 007°08'3 8.5
2017-Jun-17 10:00N 55°55' E 007°10'5 8.9
2017-Jun-17 09:25N 55°51' E 007°13'4 8.3
2017-Jun-17 08:56N 55°47' E 007°15'4 8.3
2017-Jun-17 08:30N 55°43' E 007°17'4 8.1
2017-Jun-17 08:00N 55°40' E 007°19'4 7.6
2017-Jun-17 07:30N 55°36' E 007°22'  
Track history (hours):
 
Tides and Currents Weather Stations Pressure Air Temp Water Temp Dewpoint Dewpoint Depression Visibility Wind Speed Wind Dir Waves Ship Positions

Dan Fighter

Last reported at 2017-Jun-27 07:08 UTC. Time now 2017-Jun-27 13:44 UTC.
Position N 55°49' E 007°15'.

Length 64 m; draft 3.1 m.

Type: Cargo ship. MMSI: 220386978.

Date/timePositionNaut miles runAvg speedWind from/ knotsBaromVisibWave heightAir tempDewpointWater temp
2017-Jun-27 07:08N 55°49' E 007°15'1 5.6
2017-Jun-27 06:58N 55°49' E 007°15'3 6.4
2017-Jun-27 06:30N 55°46' E 007°17'3 5.6
2017-Jun-27 06:00N 55°43' E 007°19'3 5.6
2017-Jun-27 05:30N 55°41' E 007°21'3 5.3
2017-Jun-27 05:00N 55°38' E 007°23'3 5.2
2017-Jun-27 04:30N 55°36' E 007°24'3 5.8
2017-Jun-27 04:00N 55°33' E 007°26'3 6.4
2017-Jun-27 03:30N 55°30' E 007°28'4 7.3
2017-Jun-27 03:00N 55°27' E 007°31'4 7.2
2017-Jun-27 02:30N 55°24' E 007°35'3 6.5
2017-Jun-27 02:00N 55°21' E 007°37'3 6.2
2017-Jun-27 01:30N 55°18' E 007°40'3 6.0
2017-Jun-27 01:00N 55°16' E 007°42'2 4.7
2017-Jun-27 00:30N 55°13' E 007°45'2 4.8
2017-Jun-27 00:00N 55°11' E 007°47'21 0.7
2017-Jun-25 16:46N 54°52' E 008°00'2 6.5
2017-Jun-25 16:28N 54°54' E 007°60'3 6.4
2017-Jun-25 15:58N 54°57' E 007°59'3 6.3
2017-Jun-25 15:30N 54°59' E 007°57'3 6.5
2017-Jun-25 15:00N 55°02' E 007°55'3 6.3
2017-Jun-25 14:30N 55°05' E 007°52'5 5.4
2017-Jun-25 13:30N 55°10' E 007°48'3 5.0
2017-Jun-25 13:00N 55°12' E 007°46'3 5.1
2017-Jun-25 12:30N 55°14' E 007°43'3 5.2
2017-Jun-25 12:00N 55°17' E 007°41'3 5.5
2017-Jun-25 11:30N 55°19' E 007°39'3 5.6
2017-Jun-25 11:00N 55°22' E 007°37'3 5.8
2017-Jun-25 10:30N 55°24' E 007°34'3 6.0
2017-Jun-25 10:00N 55°27' E 007°32'3 6.2
2017-Jun-25 09:30N 55°30' E 007°30'4 6.8
2017-Jun-25 08:59N 55°33' E 007°26'4 8.6
2017-Jun-25 08:30N 55°36' E 007°23'4 8.2
2017-Jun-25 07:59N 55°41' E 007°21'152 7.6
2017-Jun-24 12:00N 58°05' E 005°52'4 8.1
2017-Jun-24 11:30N 58°09' E 005°50'4 8.2
2017-Jun-24 11:00N 58°13' E 005°47'4 8.9
2017-Jun-24 10:30N 58°17' E 005°45'4 8.5
2017-Jun-24 10:00N 58°21' E 005°42'4 8.1
2017-Jun-24 09:30N 58°25' E 005°40'4 7.8
2017-Jun-24 09:00N 58°29' E 005°37'4 7.6
2017-Jun-24 08:30N 58°32' E 005°35'4 8.0
2017-Jun-24 08:00N 58°36' E 005°32'4 7.7
2017-Jun-24 07:31N 58°40' E 005°30'4 7.6
2017-Jun-24 07:00N 58°43' E 005°27'3 6.5
2017-Jun-24 06:31N 58°46' E 005°26'3 6.8
2017-Jun-24 06:01N 58°49' E 005°28'3 6.9
2017-Jun-24 05:31N 58°53' E 005°31'4 7.4
2017-Jun-24 05:00N 58°56' E 005°32'4 7.5
2017-Jun-24 04:30N 58°60' E 005°33'4 8.0
2017-Jun-24 04:00N 59°04' E 005°32'4 8.0
2017-Jun-24 03:30N 59°08' E 005°31'4 7.7
2017-Jun-24 03:00N 59°11' E 005°35'4 8.0
2017-Jun-24 02:30N 59°14' E 005°40'4 8.2
2017-Jun-24 02:00N 59°17' E 005°46'4 8.3
2017-Jun-24 01:30N 59°19' E 005°53'4 8.9
2017-Jun-24 01:00N 59°22' E 006°00'1 2.5
2017-Jun-24 00:28N 59°22' E 006°03'0 0.0
2017-Jun-23 23:58N 59°22' E 006°03'0 0.0
2017-Jun-23 23:28N 59°22' E 006°03'0 0.0
2017-Jun-23 22:58N 59°22' E 006°03'0 0.0
2017-Jun-23 22:28N 59°22' E 006°03'0 0.0
2017-Jun-23 21:58N 59°22' E 006°03'0 0.0
2017-Jun-23 21:28N 59°22' E 006°03'0 0.0
2017-Jun-23 20:58N 59°22' E 006°03'0 0.0
2017-Jun-23 20:28N 59°22' E 006°03'0 0.0
2017-Jun-23 19:58N 59°22' E 006°03'0 0.0
2017-Jun-23 19:28N 59°22' E 006°03'0 0.0
2017-Jun-23 18:58N 59°22' E 006°03'0 0.0
2017-Jun-23 18:28N 59°22' E 006°03'0 0.0
2017-Jun-23 17:58N 59°22' E 006°03'0 0.0
2017-Jun-23 17:28N 59°22' E 006°03'0 0.0
2017-Jun-23 17:00N 59°22' E 006°03'2 4.8
2017-Jun-23 16:30N 59°21' E 005°59'3 6.1
2017-Jun-23 16:00N 59°20' E 005°54'3 6.2
2017-Jun-23 15:30N 59°18' E 005°48'3 6.3
2017-Jun-23 15:00N 59°16' E 005°44'7 6.7
2017-Jun-23 14:00N 59°10' E 005°36'4 7.9
2017-Jun-23 13:30N 59°07' E 005°33'4 7.4
2017-Jun-23 13:00N 59°03' E 005°33'4 7.5
2017-Jun-23 12:30N 58°59' E 005°33'4 7.5
2017-Jun-23 12:00N 58°56' E 005°33'4 7.4
2017-Jun-23 11:30N 58°52' E 005°31'4 7.3
2017-Jun-23 11:00N 58°49' E 005°28'4 7.3
2017-Jun-23 10:30N 58°45' E 005°26'4 7.2
2017-Jun-23 10:00N 58°42' E 005°28'4 7.3
2017-Jun-23 09:30N 58°38' E 005°30'4 7.2
2017-Jun-23 09:00N 58°35' E 005°32'4 7.7
2017-Jun-23 08:30N 58°31' E 005°33'4 7.4
2017-Jun-23 08:00N 58°28' E 005°35'0 1.0
2017-Jun-23 07:30N 58°27' E 005°35'1 1.0
2017-Jun-23 07:00N 58°27' E 005°34'0 0.9
2017-Jun-23 06:30N 58°26' E 005°34'0 0.9
2017-Jun-23 06:00N 58°26' E 005°35'1 1.0
2017-Jun-23 05:30N 58°25' E 005°35'1 1.0
2017-Jun-23 05:00N 58°25' E 005°36'0 0.9
2017-Jun-23 04:30N 58°24' E 005°36'0 0.8
2017-Jun-23 04:00N 58°24' E 005°37'0 0.7
2017-Jun-23 03:30N 58°24' E 005°37'0 0.7
2017-Jun-23 03:00N 58°24' E 005°38'0 0.5
2017-Jun-23 02:30N 58°24' E 005°38'0 0.4
2017-Jun-23 02:00N 58°23' E 005°38'0 0.3
2017-Jun-23 01:30N 58°23' E 005°38'0 0.3
2017-Jun-23 01:00N 58°23' E 005°38'0 0.5
2017-Jun-23 00:30N 58°23' E 005°38'0 0.5
2017-Jun-23 00:00N 58°23' E 005°39'0 0.6
2017-Jun-22 23:30N 58°22' E 005°39'0 0.4
2017-Jun-22 23:00N 58°22' E 005°39'0 0.6
2017-Jun-22 22:30N 58°22' E 005°39'1 1.1
2017-Jun-22 22:00N 58°22' E 005°40'2 5.0
2017-Jun-22 21:30N 58°19' E 005°42'3 5.2
2017-Jun-22 21:00N 58°17' E 005°44'3 5.7
2017-Jun-22 20:30N 58°14' E 005°46'3 5.9
2017-Jun-22 20:00N 58°11' E 005°48'3 5.7
2017-Jun-22 19:30N 58°09' E 005°50'3 5.7
2017-Jun-22 19:00N 58°06' E 005°51'4 6.0
2017-Jun-22 18:25N 58°03' E 005°53'3 5.9
2017-Jun-22 17:55N 57°60' E 005°55'3 5.8
2017-Jun-22 17:29N 57°57' E 005°56'3 5.8
2017-Jun-22 17:00N 57°55' E 005°58'3 5.6
2017-Jun-22 16:29N 57°52' E 005°60'3 5.9
2017-Jun-22 16:00N 57°50' E 006°02'5 5.5
2017-Jun-22 15:11N 57°45' E 006°05'1 6.1
2017-Jun-22 14:57N 57°44' E 006°05'7 7.3
2017-Jun-22 14:00N 57°37' E 006°10'104 8.3
2017-Jun-22 01:31N 55°59' E 007°10'0 9.9
2017-Jun-22 01:30N 55°59' E 007°10'5 9.4
2017-Jun-22 01:00N 55°54' E 007°13'5 9.5
2017-Jun-22 00:29N 55°50' E 007°15'5 9.6
2017-Jun-22 00:00N 55°45' E 007°18'5 9.6
2017-Jun-21 23:30N 55°41' E 007°21'5 9.6
2017-Jun-21 23:00N 55°36' E 007°24'510.0
2017-Jun-21 22:30N 55°32' E 007°27'5 9.7
2017-Jun-21 22:00N 55°27' E 007°31'5 9.3
2017-Jun-21 21:30N 55°23' E 007°35'5 9.2
2017-Jun-21 20:58N 55°19' E 007°39'4 9.0
2017-Jun-21 20:30N 55°15' E 007°42'4 8.7
2017-Jun-21 20:00N 55°11' E 007°46'54 1.4
2017-Jun-20 05:18N 54°21' E 008°19'2 4.8
2017-Jun-20 04:58N 54°22' E 008°18'29 8.5
2017-Jun-20 01:33N 54°50' E 008°00'1 9.1
2017-Jun-20 01:29N 54°50' E 008°00'5 9.5
2017-Jun-20 00:59N 54°55' E 007°58'5 9.7
2017-Jun-20 00:30N 54°59' E 007°57'8 9.1
2017-Jun-19 23:36N 55°07' E 007°50'1 9.1
2017-Jun-19 23:29N 55°08' E 007°49'4 9.0
2017-Jun-19 23:00N 55°11' E 007°46'4 8.9
2017-Jun-19 22:30N 55°15' E 007°42'4 8.8
2017-Jun-19 22:00N 55°19' E 007°38'4 8.9
2017-Jun-19 21:30N 55°23' E 007°34'5 8.9
2017-Jun-19 20:58N 55°27' E 007°31'4 8.7
2017-Jun-19 20:29N 55°31' E 007°28'4 8.7
2017-Jun-19 19:59N 55°35' E 007°24'7 8.6
2017-Jun-19 19:13N 55°41' E 007°21'3 9.0
2017-Jun-19 18:55N 55°44' E 007°19'149 9.1
2017-Jun-19 02:38N 58°05' E 005°52'1 8.6
2017-Jun-19 02:30N 58°06' E 005°52'4 8.4
2017-Jun-19 02:00N 58°10' E 005°49'4 8.6
2017-Jun-19 01:30N 58°14' E 005°46'5 9.2
2017-Jun-19 01:00N 58°18' E 005°43'5 9.2
2017-Jun-19 00:30N 58°23' E 005°41'5 9.1
2017-Jun-19 00:00N 58°27' E 005°38'4 9.1
2017-Jun-18 23:30N 58°31' E 005°35'4 8.9
2017-Jun-18 23:00N 58°36' E 005°32'4 8.7
2017-Jun-18 22:30N 58°40' E 005°30'4 8.8
2017-Jun-18 22:00N 58°44' E 005°27'4 8.3
2017-Jun-18 21:30N 58°48' E 005°28'5 9.5
2017-Jun-18 21:00N 58°52' E 005°31'4 8.9
2017-Jun-18 20:30N 58°57' E 005°32'5 9.2
2017-Jun-18 20:00N 59°01' E 005°33'5 9.4
2017-Jun-18 19:30N 59°06' E 005°33'4 8.9
2017-Jun-18 19:00N 59°10' E 005°34'5 9.1
2017-Jun-18 18:30N 59°14' E 005°40'4 8.7
2017-Jun-18 18:00N 59°17' E 005°46'4 8.4
2017-Jun-18 17:30N 59°19' E 005°53'4 8.8
2017-Jun-18 17:00N 59°22' E 006°00'1 2.8
2017-Jun-18 16:29N 59°22' E 006°03'0 0.0
2017-Jun-18 15:59N 59°22' E 006°03'0 0.0
2017-Jun-18 15:29N 59°22' E 006°03'0 0.0
2017-Jun-18 14:59N 59°22' E 006°03'0 0.0
2017-Jun-18 13:59N 59°22' E 006°03'0 0.0
2017-Jun-18 13:29N 59°22' E 006°03'0 0.0
2017-Jun-18 12:59N 59°22' E 006°03'0 0.0
2017-Jun-18 12:29N 59°22' E 006°03'0 0.0
2017-Jun-18 11:59N 59°22' E 006°03'0 0.0
2017-Jun-18 11:29N 59°22' E 006°03'0 0.0
2017-Jun-18 10:59N 59°22' E 006°03'0 0.0
2017-Jun-18 10:29N 59°22' E 006°03'0 0.0
2017-Jun-18 09:59N 59°22' E 006°03'0 0.6
2017-Jun-18 09:30N 59°22' E 006°02'4 8.4
2017-Jun-18 09:00N 59°20' E 005°55'5 9.9
2017-Jun-18 08:30N 59°17' E 005°47'5 9.6
2017-Jun-18 08:00N 59°14' E 005°41'5 9.3
2017-Jun-18 07:30N 59°10' E 005°36'5 9.4
2017-Jun-18 07:00N 59°05' E 005°33'5 9.7
2017-Jun-18 06:30N 59°01' E 005°33'5 9.7
2017-Jun-18 06:00N 58°56' E 005°33'510.0
2017-Jun-18 05:30N 58°51' E 005°30'5 9.7
2017-Jun-18 05:00N 58°46' E 005°26'5 9.2
2017-Jun-18 04:30N 58°42' E 005°28'5 9.8
2017-Jun-18 04:00N 58°37' E 005°31'510.3
2017-Jun-18 03:30N 58°33' E 005°35'510.2
2017-Jun-18 03:00N 58°28' E 005°38'510.4
2017-Jun-18 02:30N 58°23' E 005°41'510.6
2017-Jun-18 02:00N 58°18' E 005°44'510.6
2017-Jun-18 01:30N 58°13' E 005°47'510.2
2017-Jun-18 01:00N 58°08' E 005°50'510.0
2017-Jun-18 00:28N 58°03' E 005°53'5 9.9
2017-Jun-18 00:00N 57°58' E 005°56'8 9.6
2017-Jun-17 23:10N 57°51' E 006°01'2 9.7
2017-Jun-17 22:59N 57°49' E 006°02'5 9.8
2017-Jun-17 22:30N 57°44' E 006°05'5 9.8
2017-Jun-17 22:00N 57°40' E 006°08'5 9.5
2017-Jun-17 21:29N 57°35' E 006°11'102 9.1
2017-Jun-17 10:21N 55°58' E 007°08'3 8.5
2017-Jun-17 10:00N 55°55' E 007°10'5 8.9
2017-Jun-17 09:25N 55°51' E 007°13'4 8.3
2017-Jun-17 08:56N 55°47' E 007°15'4 8.3
2017-Jun-17 08:30N 55°43' E 007°17'4 8.1
2017-Jun-17 08:00N 55°40' E 007°19'4 7.6
2017-Jun-17 07:30N 55°36' E 007°22'  

Dump ship's entire track history